createdAt,value
2023-04-28T00:02:06.078Z,92.84
2023-04-28T00:04:34.226Z,93.17
2023-04-28T00:07:03.802Z,92.78
2023-04-28T00:09:31.696Z,92.41
2023-04-28T00:12:00.172Z,92.90
2023-04-28T00:14:28.249Z,93.35
2023-04-28T00:16:57.854Z,93.37
2023-04-28T00:19:25.964Z,93.21
2023-04-28T00:21:53.878Z,92.99
2023-04-28T00:24:23.108Z,93.14
2023-04-28T00:26:51.264Z,92.89
2023-04-28T00:29:19.481Z,93.36
2023-04-28T00:31:47.383Z,93.82
2023-04-28T00:34:15.759Z,94.17
2023-04-28T00:36:43.830Z,94.12
2023-04-28T00:39:11.705Z,94.19
2023-04-28T00:41:41.044Z,94.42
2023-04-28T00:44:08.979Z,94.15
2023-04-28T00:46:36.841Z,93.89
2023-04-28T00:49:06.166Z,94.09
2023-04-28T00:51:34.482Z,93.94
2023-04-28T00:54:02.399Z,94.18
2023-04-28T00:56:31.332Z,94.77
2023-04-28T00:59:00.730Z,94.77
2023-04-28T01:01:28.742Z,95.24
2023-04-28T01:03:57.139Z,95.70
2023-04-28T01:06:25.273Z,95.24
2023-04-28T01:08:53.436Z,96.01
2023-04-28T01:11:21.482Z,95.76
2023-04-28T01:13:49.369Z,95.99
2023-04-28T01:16:18.687Z,95.63
2023-04-28T01:18:48.983Z,95.97
2023-04-28T01:21:29.039Z,95.54
2023-04-28T01:23:58.491Z,95.97
2023-04-28T01:26:26.475Z,96.19
2023-04-28T01:28:54.663Z,96.27
2023-04-28T01:31:22.923Z,96.63
2023-04-28T01:33:50.797Z,96.57
2023-04-28T01:36:18.629Z,96.79
2023-04-28T01:38:46.658Z,96.58
2023-04-28T01:41:15.924Z,96.72
2023-04-28T01:43:44.378Z,97.39
2023-04-28T01:46:12.776Z,97.47
2023-04-28T01:48:40.590Z,96.83
2023-04-28T01:51:08.551Z,97.26
2023-04-28T01:53:36.606Z,97.84
2023-04-28T01:56:04.560Z,97.41
2023-04-28T01:58:33.940Z,98.48
2023-04-28T02:01:01.959Z,97.92
2023-04-28T02:03:29.971Z,98.70
2023-04-28T02:05:57.957Z,98.58
2023-04-28T02:08:25.891Z,98.53
2023-04-28T02:10:53.803Z,98.96
2023-04-28T02:13:21.731Z,99.05
2023-04-28T02:15:51.181Z,99.32
2023-04-28T02:18:19.048Z,99.32
2023-04-28T02:20:46.977Z,98.95
2023-04-28T02:23:14.984Z,98.96
2023-04-28T02:25:42.819Z,98.69
2023-04-28T02:28:10.724Z,98.72
2023-04-28T02:30:38.978Z,98.75
2023-04-28T02:33:08.247Z,98.63
2023-04-28T02:35:36.197Z,99.04
2023-04-28T02:38:04.221Z,99.03
2023-04-28T02:40:32.078Z,99.90
2023-04-28T02:43:00.000Z,99.62
2023-04-28T02:45:28.035Z,99.88
2023-04-28T02:47:55.951Z,99.84
2023-04-28T02:50:25.309Z,99.99
2023-04-28T02:52:53.255Z,100.00
2023-04-28T02:55:24.315Z,99.49
2023-04-28T02:57:52.597Z,99.66
2023-04-28T03:00:21.000Z,99.25
2023-04-28T03:02:48.877Z,99.61
2023-04-28T03:05:16.947Z,99.14
2023-04-28T03:07:46.369Z,99.10
2023-04-28T03:10:14.261Z,99.66
2023-04-28T03:12:42.181Z,99.65
2023-04-28T03:15:12.742Z,98.99
2023-04-28T03:17:43.242Z,99.42
2023-04-28T03:20:13.165Z,98.83
2023-04-28T03:22:41.086Z,98.80
2023-04-28T03:25:11.287Z,98.68
2023-04-28T03:27:39.783Z,98.89
2023-04-28T03:30:08.767Z,98.68
2023-04-28T03:32:36.696Z,97.96
2023-04-28T03:35:05.053Z,98.30
2023-04-28T03:37:32.956Z,97.83
2023-04-28T03:40:00.782Z,97.86
2023-04-28T03:42:30.123Z,97.71
2023-04-28T03:44:57.941Z,97.09
2023-04-28T03:47:25.800Z,97.49
2023-04-28T03:49:53.828Z,97.02
2023-04-28T03:52:21.757Z,96.65
2023-04-28T03:54:49.570Z,96.63
2023-04-28T03:57:22.817Z,96.43
2023-04-28T03:59:55.138Z,96.50
2023-04-28T04:02:23.219Z,96.29
2023-04-28T04:04:51.822Z,96.21
2023-04-28T04:07:20.420Z,96.29
2023-04-28T04:09:48.381Z,96.12
2023-04-28T04:12:16.455Z,95.62
2023-04-28T04:14:44.529Z,95.94
2023-04-28T04:17:13.826Z,95.71
2023-04-28T04:19:41.941Z,95.45
2023-04-28T04:22:10.340Z,95.41
2023-04-28T04:24:38.356Z,95.47
2023-04-28T04:27:06.341Z,95.41
2023-04-28T04:29:34.326Z,95.27
2023-04-28T04:32:02.236Z,94.97
2023-04-28T04:34:31.980Z,95.30
2023-04-28T04:36:59.943Z,94.99
2023-04-28T04:39:27.865Z,95.04
2023-04-28T04:41:57.773Z,94.39
2023-04-28T04:44:27.752Z,94.37
2023-04-28T04:46:56.329Z,94.43
2023-04-28T04:49:24.528Z,94.62
2023-04-28T04:51:53.901Z,94.52
2023-04-28T04:54:21.950Z,93.97
2023-04-28T04:56:50.004Z,93.90
2023-04-28T04:59:18.418Z,93.50
2023-04-28T05:01:46.371Z,93.70
2023-04-28T05:04:14.711Z,93.66
2023-04-28T05:06:42.931Z,93.28
2023-04-28T05:09:12.454Z,92.98
2023-04-28T05:11:42.677Z,93.03
2023-04-28T05:14:10.626Z,92.70
2023-04-28T05:16:39.001Z,92.60
2023-04-28T05:19:08.268Z,92.30
2023-04-28T05:21:37.970Z,92.06
2023-04-28T05:24:06.789Z,91.92
2023-04-28T05:26:37.413Z,91.93
2023-04-28T05:29:05.245Z,92.02
2023-04-28T05:31:33.243Z,91.99
2023-04-28T05:34:01.474Z,91.99
2023-04-28T05:36:29.382Z,91.63
2023-04-28T05:38:57.321Z,91.76
2023-04-28T05:41:25.628Z,91.67
2023-04-28T05:43:54.820Z,91.43
2023-04-28T05:48:57.093Z,91.16
2023-04-28T05:51:25.346Z,91.42
2023-04-28T05:53:53.222Z,91.15
2023-04-28T05:56:21.454Z,90.75
2023-04-28T05:58:50.646Z,90.99
2023-04-28T06:01:20.175Z,90.75
2023-04-28T06:03:48.387Z,91.18
2023-04-28T06:06:16.740Z,90.79
2023-04-28T06:08:44.668Z,90.96
2023-04-28T06:11:12.665Z,91.11
2023-04-28T06:13:40.612Z,90.78
2023-04-28T06:16:08.848Z,90.80
2023-04-28T06:18:38.358Z,90.05
2023-04-28T06:21:06.267Z,89.40
2023-04-28T06:23:34.118Z,88.53
2023-04-28T06:26:02.179Z,88.96
2023-04-28T06:28:30.158Z,89.53
2023-04-28T06:30:59.896Z,89.80
2023-04-28T06:33:27.998Z,89.79
2023-04-28T06:35:57.381Z,88.72
2023-04-28T06:38:25.271Z,88.46
2023-04-28T06:40:55.215Z,88.49
2023-04-28T06:43:23.182Z,88.37
2023-04-28T06:45:51.022Z,88.15
2023-04-28T06:48:19.179Z,87.65
2023-04-28T06:50:47.102Z,87.39
2023-04-28T06:53:16.712Z,87.20
2023-04-28T06:55:44.798Z,86.77
2023-04-28T06:58:12.818Z,85.62
2023-04-28T07:00:40.685Z,86.22
2023-04-28T07:03:09.337Z,86.64
2023-04-28T07:05:37.646Z,86.94
2023-04-28T07:08:06.074Z,86.84
2023-04-28T07:10:35.459Z,86.96
2023-04-28T07:13:03.402Z,86.25
2023-04-28T07:15:31.494Z,86.60
2023-04-28T07:17:59.666Z,86.74
2023-04-28T07:20:27.906Z,85.90
2023-04-28T07:22:55.745Z,86.40
2023-04-28T07:25:23.721Z,87.05
2023-04-28T07:27:54.373Z,89.14
2023-04-28T07:30:27.979Z,88.45
2023-04-28T07:32:56.773Z,86.97
2023-04-28T07:35:24.708Z,85.15
2023-04-28T07:37:53.067Z,83.77
2023-04-28T07:40:21.297Z,83.09
2023-04-28T07:42:49.207Z,83.55
2023-04-28T07:45:18.594Z,83.76
2023-04-28T07:47:46.690Z,82.90
2023-04-28T07:50:14.558Z,83.15
2023-04-28T07:52:42.496Z,82.78
2023-04-28T07:55:11.172Z,82.53
2023-04-28T07:57:39.283Z,82.48
2023-04-28T08:00:08.580Z,81.69
2023-04-28T08:02:38.121Z,82.06
2023-04-28T08:05:07.561Z,82.56
2023-04-28T08:07:35.681Z,81.36
2023-04-28T08:10:03.839Z,81.48
2023-04-28T08:12:32.711Z,81.74
2023-04-28T08:15:00.679Z,81.76
2023-04-28T08:17:28.803Z,81.32
2023-04-28T08:19:58.681Z,79.95
2023-04-28T08:22:26.518Z,79.74
2023-04-28T08:24:54.645Z,80.33
2023-04-28T08:27:23.855Z,79.71
2023-04-28T08:29:51.838Z,79.90
2023-04-28T08:32:19.905Z,80.41
2023-04-28T08:34:47.730Z,80.70
2023-04-28T08:37:17.022Z,80.83
2023-04-28T08:39:45.169Z,80.34
2023-04-28T08:42:13.784Z,80.14
2023-04-28T08:44:41.780Z,80.84
2023-04-28T08:47:14.081Z,81.01
2023-04-28T08:49:42.787Z,80.58
2023-04-28T08:52:13.483Z,79.35
2023-04-28T08:54:43.858Z,78.14
2023-04-28T08:57:12.170Z,77.80
2023-04-28T08:59:41.382Z,76.56
2023-04-28T09:02:10.579Z,74.53
2023-04-28T09:04:39.308Z,73.78
2023-04-28T09:07:12.496Z,73.48
2023-04-28T09:09:42.374Z,75.90
2023-04-28T09:12:10.282Z,73.98
2023-04-28T09:14:40.219Z,74.02
2023-04-28T09:17:12.676Z,73.39
2023-04-28T09:19:43.155Z,70.24
2023-04-28T09:22:25.439Z,71.21
2023-04-28T09:24:56.451Z,69.78
2023-04-28T09:27:28.881Z,70.01
2023-04-28T09:29:57.096Z,66.65
2023-04-28T09:32:27.981Z,67.17
2023-04-28T09:34:57.689Z,67.10
2023-04-28T09:37:27.306Z,64.98
2023-04-28T09:39:56.820Z,65.11
2023-04-28T09:42:35.220Z,64.30
2023-04-28T09:45:04.632Z,65.74
2023-04-28T09:47:34.939Z,65.65
2023-04-28T09:50:04.997Z,64.84
2023-04-28T09:52:35.506Z,64.24
2023-04-28T09:55:06.450Z,64.18
2023-04-28T09:57:36.708Z,64.75
2023-04-28T10:00:07.755Z,65.60
2023-04-28T10:05:10.225Z,64.87
2023-04-28T10:07:40.269Z,64.97
2023-04-28T10:10:10.396Z,62.99
2023-04-28T10:12:39.223Z,61.56
2023-04-28T10:15:10.686Z,61.16
2023-04-28T10:17:40.823Z,62.01
2023-04-28T10:20:10.013Z,60.93
2023-04-28T10:22:56.011Z,61.96
2023-04-28T10:25:31.216Z,62.26
2023-04-28T10:28:00.681Z,62.16
2023-04-28T10:30:30.368Z,60.58
2023-04-28T10:33:24.714Z,56.93
2023-04-28T10:35:52.904Z,58.15
2023-04-28T10:38:22.660Z,56.45
2023-04-28T10:40:54.028Z,52.37
2023-04-28T10:43:37.721Z,50.26
2023-04-28T10:46:08.254Z,52.60
2023-04-28T10:48:59.718Z,50.41
2023-04-28T10:51:32.096Z,50.67
2023-04-28T10:54:19.877Z,50.06
2023-04-28T10:57:23.048Z,49.10
2023-04-28T10:59:51.575Z,49.72
2023-04-28T11:02:50.130Z,50.08
2023-04-28T11:05:20.185Z,50.22
2023-04-28T11:08:36.949Z,47.32
2023-04-28T11:11:21.860Z,47.38
2023-04-28T11:13:51.979Z,46.06
2023-04-28T11:16:23.276Z,46.01
2023-04-28T11:19:03.709Z,43.99
2023-04-28T11:21:32.724Z,45.76
2023-04-28T11:24:00.857Z,46.11
2023-04-28T11:26:30.157Z,48.19
2023-04-28T11:28:59.719Z,47.30
2023-04-28T11:31:30.525Z,46.57
2023-04-28T11:34:05.152Z,45.62
2023-04-28T11:36:35.989Z,43.93
2023-04-28T11:39:07.594Z,43.28
2023-04-28T11:41:36.194Z,44.00
2023-04-28T11:44:13.616Z,43.59
2023-04-28T11:46:50.714Z,44.68
2023-04-28T11:49:19.978Z,44.97
2023-04-28T11:51:50.236Z,44.44
2023-04-28T11:54:22.589Z,44.18
2023-04-28T11:56:50.985Z,44.64
2023-04-28T12:01:59.564Z,44.82
2023-04-28T12:04:33.037Z,45.70
2023-04-28T12:07:06.125Z,45.65
2023-04-28T12:09:35.382Z,46.18
2023-04-28T12:12:05.109Z,46.27
2023-04-28T12:14:54.404Z,46.27
2023-04-28T12:17:26.637Z,46.85
2023-04-28T12:19:54.721Z,46.93
2023-04-28T12:22:22.900Z,45.25
2023-04-28T12:25:04.832Z,42.57
2023-04-28T12:27:33.238Z,43.23
2023-04-28T12:30:02.456Z,43.59
2023-04-28T12:32:40.964Z,44.62
2023-04-28T12:35:09.914Z,44.77
2023-04-28T12:37:38.842Z,43.13
2023-04-28T12:40:07.833Z,40.47
2023-04-28T12:42:36.130Z,39.44
2023-04-28T12:45:07.035Z,38.38
2023-04-28T12:47:35.252Z,36.51
2023-04-28T12:50:03.379Z,36.81
2023-04-28T12:52:33.798Z,38.14
2023-04-28T12:55:01.827Z,38.16
2023-04-28T12:57:30.550Z,38.70
2023-04-28T12:59:58.430Z,38.98
2023-04-28T13:02:29.650Z,38.99
2023-04-28T13:04:57.649Z,36.81
2023-04-28T13:07:25.638Z,36.77
2023-04-28T13:09:53.766Z,36.21
2023-04-28T13:12:21.604Z,36.51
2023-04-28T13:14:49.445Z,36.83
2023-04-28T13:17:17.711Z,35.71
2023-04-28T13:19:47.542Z,33.52
2023-04-28T13:22:16.192Z,32.30
2023-04-28T13:24:44.873Z,31.79
2023-04-28T13:27:12.899Z,32.62
2023-04-28T13:29:41.357Z,32.93
2023-04-28T13:32:09.657Z,31.94
2023-04-28T13:34:38.335Z,31.71
2023-04-28T13:37:07.574Z,32.77
2023-04-28T13:39:35.805Z,32.98
2023-04-28T13:42:04.130Z,33.28
2023-04-28T13:44:32.042Z,34.33
2023-04-28T13:47:00.204Z,35.13
2023-04-28T13:49:28.197Z,34.99
2023-04-28T13:51:56.537Z,34.41
2023-04-28T13:54:25.919Z,34.83
2023-04-28T13:56:53.792Z,35.53
2023-04-28T13:59:21.806Z,36.23
2023-04-28T14:01:50.278Z,36.63
2023-04-28T14:04:18.555Z,37.72
2023-04-28T14:06:46.671Z,38.96
2023-04-28T14:09:14.893Z,40.49
2023-04-28T14:11:44.664Z,42.41
2023-04-28T14:14:12.655Z,45.20
2023-04-28T14:16:40.902Z,46.96
2023-04-28T14:19:09.268Z,48.10
2023-04-28T14:21:38.169Z,49.54
2023-04-28T14:24:06.857Z,50.82
2023-04-28T14:26:34.800Z,52.04
2023-04-28T14:29:05.736Z,53.88
2023-04-28T14:31:34.207Z,55.56
2023-04-28T14:34:03.969Z,55.49
2023-04-28T14:36:33.072Z,53.05
2023-04-28T14:39:01.549Z,51.27
2023-04-28T14:41:29.422Z,50.87
2023-04-28T14:43:57.854Z,51.48
2023-04-28T14:46:27.812Z,51.49
2023-04-28T14:48:55.719Z,50.92
2023-04-28T14:51:23.629Z,50.95
2023-04-28T14:53:51.619Z,51.52
2023-04-28T14:56:20.522Z,50.84
2023-04-28T14:58:48.585Z,49.14
2023-04-28T15:01:17.692Z,47.36
2023-04-28T15:03:47.404Z,45.18
2023-04-28T15:06:15.396Z,44.08
2023-04-28T15:08:43.536Z,44.52
2023-04-28T15:11:11.851Z,45.30
2023-04-28T15:13:41.661Z,45.81
2023-04-28T15:16:11.350Z,45.67
2023-04-28T15:18:39.584Z,46.32
2023-04-28T15:21:09.515Z,46.16
2023-04-28T15:23:37.998Z,45.65
2023-04-28T15:26:06.716Z,45.44
2023-04-28T15:28:34.646Z,45.07
2023-04-28T15:31:02.890Z,44.05
2023-04-28T15:33:30.847Z,43.00
2023-04-28T15:35:58.814Z,42.21
2023-04-28T15:38:31.409Z,40.92
2023-04-28T15:40:59.297Z,40.08
2023-04-28T15:43:27.250Z,39.36
2023-04-28T15:45:55.418Z,38.74
2023-04-28T15:48:23.954Z,38.02
2023-04-28T15:50:51.942Z,37.99
2023-04-28T15:53:20.035Z,38.22
2023-04-28T15:55:49.564Z,38.68
2023-04-28T15:58:17.500Z,39.73
2023-04-28T16:00:47.149Z,40.20
2023-04-28T16:03:15.281Z,39.74
2023-04-28T16:05:43.350Z,38.66
2023-04-28T16:08:11.730Z,38.27
2023-04-28T16:10:41.296Z,37.79
2023-04-28T16:13:12.341Z,37.79
2023-04-28T16:15:41.864Z,37.44
2023-04-28T16:18:10.089Z,37.90
2023-04-28T16:20:38.057Z,38.34
2023-04-28T16:23:06.663Z,39.45
2023-04-28T16:25:35.410Z,39.26
2023-04-28T16:28:03.299Z,39.24
2023-04-28T16:30:32.770Z,39.52
2023-04-28T16:33:00.919Z,38.99
2023-04-28T16:35:28.813Z,38.44
2023-04-28T16:37:57.130Z,37.94
2023-04-28T16:40:25.164Z,37.12
2023-04-28T16:42:53.452Z,36.84
2023-04-28T16:45:21.286Z,36.81
2023-04-28T16:47:50.710Z,36.69
2023-04-28T16:50:18.802Z,36.92
2023-04-28T16:52:46.774Z,37.12
2023-04-28T16:55:14.804Z,37.37
2023-04-28T16:57:42.993Z,37.47
2023-04-28T17:00:12.015Z,37.74
2023-04-28T17:02:40.000Z,37.85
2023-04-28T17:05:10.820Z,37.78
2023-04-28T17:07:38.787Z,37.97
2023-04-28T17:10:08.268Z,38.42
2023-04-28T17:12:36.288Z,38.39
2023-04-28T17:15:04.345Z,38.69
2023-04-28T17:17:33.606Z,39.18
2023-04-28T17:20:02.456Z,39.46
2023-04-28T17:22:33.007Z,40.16
2023-04-28T17:25:00.963Z,40.81
2023-04-28T17:27:28.909Z,41.63
2023-04-28T17:29:57.176Z,42.46
2023-04-28T17:32:25.060Z,42.67
2023-04-28T17:34:53.138Z,43.24
2023-04-28T17:37:21.121Z,43.96
2023-04-28T17:39:52.240Z,44.42
2023-04-28T17:42:20.377Z,44.52
2023-04-28T17:44:48.495Z,45.07
2023-04-28T17:47:17.504Z,45.95
2023-04-28T17:49:45.662Z,46.35
2023-04-28T17:52:15.446Z,46.90
2023-04-28T17:54:43.854Z,47.16
2023-04-28T17:57:14.473Z,47.70
2023-04-28T17:59:42.725Z,47.99
2023-04-28T18:02:11.186Z,48.26
2023-04-28T18:04:39.725Z,48.78
2023-04-28T18:07:07.955Z,49.07
2023-04-28T18:09:35.787Z,49.30
2023-04-28T18:12:04.591Z,49.67
2023-04-28T18:14:33.975Z,50.04
2023-04-28T18:17:01.955Z,50.13
2023-04-28T18:19:31.664Z,50.68
2023-04-28T18:22:00.204Z,51.13
2023-04-28T18:24:28.232Z,51.27
2023-04-28T18:26:56.104Z,51.77
2023-04-28T18:29:24.069Z,52.28
2023-04-28T18:31:53.393Z,52.83
2023-04-28T18:34:21.415Z,52.76
2023-04-28T18:36:49.995Z,53.33
2023-04-28T18:39:18.271Z,53.74
2023-04-28T18:41:46.181Z,54.18
2023-04-28T18:44:14.096Z,54.34
2023-04-28T18:46:42.039Z,54.98
2023-04-28T18:49:11.342Z,55.08
2023-04-28T18:51:39.622Z,55.33
2023-04-28T18:54:07.610Z,55.65
2023-04-28T18:56:36.128Z,55.56
2023-04-28T18:59:05.944Z,56.13
2023-04-28T19:01:34.002Z,56.19
2023-04-28T19:04:03.204Z,57.17
2023-04-28T19:06:32.730Z,56.97
2023-04-28T19:09:01.540Z,57.52
2023-04-28T19:11:30.522Z,57.84
2023-04-28T19:13:59.042Z,57.60
2023-04-28T19:16:27.199Z,58.25
2023-04-28T19:18:55.092Z,58.23
2023-04-28T19:21:23.552Z,59.25
2023-04-28T19:23:53.387Z,59.99
2023-04-28T19:26:21.415Z,59.57
2023-04-28T19:28:49.289Z,59.75
2023-04-28T19:31:17.326Z,60.43
2023-04-28T19:33:46.026Z,60.65
2023-04-28T19:36:13.979Z,60.63
2023-04-28T19:38:42.067Z,61.35
2023-04-28T19:41:11.379Z,61.25
2023-04-28T19:43:39.326Z,60.96
2023-04-28T19:46:08.194Z,61.99
2023-04-28T19:48:36.194Z,61.47
2023-04-28T19:51:04.016Z,61.92
2023-04-28T19:53:32.245Z,62.10
2023-04-28T19:56:02.105Z,62.35
2023-04-28T19:58:31.702Z,62.83
2023-04-28T20:01:00.560Z,63.14
2023-04-28T20:03:30.103Z,62.88
2023-04-28T20:05:58.090Z,63.44
2023-04-28T20:08:27.578Z,63.86
2023-04-28T20:10:55.723Z,63.75
2023-04-28T20:13:24.731Z,63.49
2023-04-28T20:15:54.986Z,64.37
2023-04-28T20:18:22.938Z,64.19
2023-04-28T20:20:53.564Z,64.25
2023-04-28T20:23:21.705Z,64.57
2023-04-28T20:25:50.047Z,65.08
2023-04-28T20:28:17.866Z,64.91
2023-04-28T20:30:46.057Z,65.76
2023-04-28T20:33:16.250Z,66.18
2023-04-28T20:35:44.396Z,65.81
2023-04-28T20:38:12.560Z,66.00
2023-04-28T20:40:41.037Z,66.76
2023-04-28T20:43:08.876Z,66.77
2023-04-28T20:45:36.934Z,67.47
2023-04-28T20:48:05.082Z,67.36
2023-04-28T20:50:39.065Z,67.55
2023-04-28T20:53:09.498Z,67.21
2023-04-28T20:55:37.348Z,67.48
2023-04-28T20:58:05.202Z,67.37
2023-04-28T21:00:33.956Z,67.69
2023-04-28T21:03:04.727Z,67.74
2023-04-28T21:05:34.955Z,68.02
2023-04-28T21:08:02.857Z,67.77
2023-04-28T21:10:32.026Z,68.32
2023-04-28T21:13:00.112Z,68.57
2023-04-28T21:15:28.693Z,68.23
2023-04-28T21:17:56.811Z,68.70
2023-04-28T21:20:25.139Z,68.66
2023-04-28T21:22:54.551Z,69.20
2023-04-28T21:25:22.375Z,69.25
2023-04-28T21:27:50.659Z,69.39
2023-04-28T21:30:19.730Z,69.88
2023-04-28T21:32:47.656Z,69.58
2023-04-28T21:35:16.308Z,69.82
2023-04-28T21:37:44.248Z,69.81
2023-04-28T21:40:14.052Z,70.02
2023-04-28T21:42:42.050Z,69.99
2023-04-28T21:45:10.979Z,69.99
2023-04-28T21:47:41.468Z,70.31
2023-04-28T21:50:11.747Z,70.23
2023-04-28T21:52:39.617Z,70.23
2023-04-28T21:55:08.400Z,70.32
2023-04-28T21:57:37.932Z,70.52
2023-04-28T22:00:10.623Z,70.40
2023-04-28T22:02:39.907Z,70.55
2023-04-28T22:05:08.380Z,70.86
2023-04-28T22:07:36.832Z,70.96
2023-04-28T22:10:05.296Z,70.85
2023-04-28T22:12:33.140Z,70.59
2023-04-28T22:15:02.395Z,71.18
2023-04-28T22:17:30.442Z,71.44
2023-04-28T22:19:58.272Z,71.42
2023-04-28T22:22:26.092Z,71.70
2023-04-28T22:24:54.253Z,71.34
2023-04-28T22:27:22.108Z,71.25
2023-04-28T22:29:50.198Z,71.33
2023-04-28T22:32:19.812Z,71.70
2023-04-28T22:34:48.221Z,71.53
2023-04-28T22:37:16.040Z,71.42
2023-04-28T22:39:44.680Z,71.74
2023-04-28T22:42:12.510Z,71.94
2023-04-28T22:44:40.668Z,71.87
2023-04-28T22:47:09.009Z,71.55
2023-04-28T22:49:38.243Z,71.71
2023-04-28T22:52:07.568Z,71.88
2023-04-28T22:54:36.936Z,71.89
2023-04-28T22:57:04.967Z,71.94
2023-04-28T22:59:34.133Z,71.86
2023-04-28T23:02:02.545Z,71.76
2023-04-28T23:04:30.912Z,71.95
2023-04-28T23:07:00.416Z,71.98
2023-04-28T23:09:28.428Z,72.01
2023-04-28T23:11:56.673Z,71.98
2023-04-28T23:14:24.497Z,72.05
2023-04-28T23:16:52.583Z,72.12
2023-04-28T23:19:20.857Z,72.36
2023-04-28T23:21:48.882Z,71.91
2023-04-28T23:24:18.477Z,72.10
2023-04-28T23:26:46.576Z,72.20
2023-04-28T23:29:14.453Z,72.07
2023-04-28T23:31:42.595Z,72.44
2023-04-28T23:34:10.496Z,72.14
2023-04-28T23:36:38.602Z,72.52
2023-04-28T23:39:06.680Z,72.43
2023-04-28T23:41:35.921Z,73.00
2023-04-28T23:44:03.827Z,72.62
2023-04-28T23:46:32.127Z,73.09
2023-04-28T23:48:59.960Z,73.13
2023-04-28T23:51:27.830Z,73.37
2023-04-28T23:53:56.144Z,73.46
2023-04-28T23:56:24.178Z,73.29
2023-04-28T23:58:54.532Z,73.30
